Time;durP1;ratioP1;P1;durP2;ratioP2;P2;SDS_P1;SDS_P2;PMS_P1;PMS_P2;Temp;Humidity;BMP_temperature;BMP_pressure;BME280_temperature;BME280_humidity;BME280_pressure;Samples;Min_cycle;Max_cycle;Signal;HPM_P1;HPM_P2
2021/11/21 00:01:20;;;;;;;36.60;21.48;;;;;;;15.20;50.72;100830.06;4977860;28;99359;-82
2021/11/21 00:03:48;;;;;;;35.28;20.05;;;;;;;14.94;50.95;100834.09;4978796;28;97257;-81
2021/11/21 00:06:18;;;;;;;35.67;20.50;;;;;;;14.61;51.49;100826.91;4994214;28;96783;-82
2021/11/21 00:08:44;;;;;;;37.17;21.67;;;;;;;14.57;52.55;100827.97;4982967;28;97662;-82
2021/11/21 00:11:11;;;;;;;32.95;19.80;;;;;;;14.57;52.97;100822.66;4984265;28;97086;-83
2021/11/21 00:13:38;;;;;;;35.58;20.98;;;;;;;14.67;51.98;100815.94;5003032;28;96498;-81
2021/11/21 00:16:06;;;;;;;36.17;21.15;;;;;;;14.62;51.81;100809.16;5015158;28;96442;-81
2021/11/21 00:18:33;;;;;;;34.78;21.05;;;;;;;14.70;51.57;100813.13;4993779;28;98048;-81
2021/11/21 00:21:01;;;;;;;37.92;21.20;;;;;;;14.96;51.40;100816.25;4996976;28;102208;-81
2021/11/21 00:23:28;;;;;;;37.10;20.90;;;;;;;15.29;50.19;100803.81;4978799;28;96702;-81
2021/11/21 00:25:57;;;;;;;37.40;21.08;;;;;;;15.19;50.36;100807.91;4977719;28;96757;-81
2021/11/21 00:28:24;;;;;;;29.13;18.58;;;;;;;15.16;50.54;100816.91;4980610;28;101649;-82
2021/11/21 00:30:51;;;;;;;34.50;20.98;;;;;;;14.92;51.05;100806.69;4997669;28;97994;-81
2021/11/21 00:33:18;;;;;;;35.95;19.30;;;;;;;14.93;51.07;100803.09;4989418;28;96766;-81
2021/11/21 00:35:44;;;;;;;32.75;18.65;;;;;;;15.00;50.89;100792.06;4976550;28;96849;-82
2021/11/21 00:38:14;;;;;;;33.30;18.77;;;;;;;15.29;50.12;100794.97;4977650;28;101841;-82
2021/11/21 00:40:41;;;;;;;32.00;19.33;;;;;;;15.18;50.27;100795.53;4988205;28;98940;-84
2021/11/21 00:43:08;;;;;;;31.50;18.85;;;;;;;14.76;51.10;100793.34;4990131;28;96798;-81
2021/11/21 00:45:34;;;;;;;34.72;18.70;;;;;;;14.92;51.02;100783.59;4995384;28;97036;-78
2021/11/21 00:48:02;;;;;;;30.38;18.42;;;;;;;15.04;50.43;100788.28;4986372;28;99232;-80
2021/11/21 00:50:31;;;;;;;30.02;18.33;;;;;;;14.79;50.49;100787.00;4996286;28;99755;-83
2021/11/21 00:53:01;;;;;;;31.85;18.35;;;;;;;14.70;51.37;100786.53;5005952;28;96741;-83
2021/11/21 00:55:38;;;;;;;28.13;17.77;;;;;;;14.35;52.59;100777.69;5005969;28;96810;-82
2021/11/21 00:58:07;;;;;;;30.50;18.05;;;;;;;14.46;52.79;100778.94;5008792;28;98236;-82
2021/11/21 01:00:34;;;;;;;28.95;17.70;;;;;;;14.65;51.93;100774.41;5010525;28;99871;-82
2021/11/21 01:03:01;;;;;;;29.10;17.75;;;;;;;14.88;51.64;100775.88;5006989;28;96679;-81
2021/11/21 01:05:28;;;;;;;28.33;17.25;;;;;;;14.82;51.15;100766.44;4993539;28;96984;-81
2021/11/21 01:07:54;;;;;;;31.17;17.40;;;;;;;15.14;50.53;100764.72;4996381;28;97986;-81
2021/11/21 01:10:22;;;;;;;28.25;17.38;;;;;;;15.01;50.65;100759.19;5000727;28;97533;-80
2021/11/21 01:12:53;;;;;;;28.52;17.52;;;;;;;15.02;50.43;100765.38;4997946;28;97019;-81
2021/11/21 01:15:20;;;;;;;27.05;16.83;;;;;;;15.07;50.30;100760.66;4980219;28;96805;-81
2021/11/21 01:17:47;;;;;;;27.17;16.50;;;;;;;15.19;50.05;100760.00;4984966;28;97146;-80
2021/11/21 01:20:14;;;;;;;29.63;17.20;;;;;;;15.29;50.06;100747.91;4991827;28;101567;-81
2021/11/21 01:22:41;;;;;;;26.27;15.98;;;;;;;15.14;50.06;100752.25;4994422;28;96787;-81
2021/11/21 01:25:11;;;;;;;26.92;16.13;;;;;;;15.21;50.19;100738.63;4979813;28;96662;-82
2021/11/21 01:27:38;;;;;;;28.92;17.67;;;;;;;14.96;50.29;100747.06;4990517;28;101314;-81
2021/11/21 01:30:13;;;;;;;29.45;17.60;;;;;;;15.06;50.22;100745.63;4988268;28;97491;-81
2021/11/21 01:32:41;;;;;;;29.50;18.10;;;;;;;15.34;50.08;100748.50;5000232;28;96793;-82
2021/11/21 01:35:09;;;;;;;28.98;18.20;;;;;;;15.08;50.39;100741.09;4999827;28;96859;-83
2021/11/21 01:37:36;;;;;;;29.67;17.90;;;;;;;14.84;50.79;100742.38;4997652;28;99066;-81
2021/11/21 01:40:04;;;;;;;26.70;16.35;;;;;;;14.99;50.51;100731.78;5014022;28;100010;-82
2021/11/21 01:42:31;;;;;;;31.85;17.73;;;;;;;14.83;50.90;100732.72;5007090;28;96936;-82
2021/11/21 01:44:58;;;;;;;29.63;18.60;;;;;;;14.79;51.12;100715.16;5004884;28;96767;-82
2021/11/21 01:47:26;;;;;;;28.50;17.73;;;;;;;14.62;51.69;100714.28;5012322;28;99951;-80
2021/11/21 01:49:54;;;;;;;33.45;17.52;;;;;;;14.85;50.91;100714.84;5009156;28;99169;-83
2021/11/21 01:52:22;;;;;;;29.77;17.02;;;;;;;14.99;50.55;100706.97;5011191;28;96749;-82
2021/11/21 01:54:52;;;;;;;27.52;17.58;;;;;;;14.47;52.12;100712.41;5010780;28;96837;-82
2021/11/21 01:57:19;;;;;;;33.03;18.35;;;;;;;14.72;51.34;100702.19;5016804;27;100019;-82
2021/11/21 01:59:46;;;;;;;26.50;16.58;;;;;;;14.75;50.92;100704.72;5016542;27;100391;-82
2021/11/21 02:02:13;;;;;;;27.90;17.20;;;;;;;14.62;51.21;100698.31;5020155;28;96484;-82
2021/11/21 02:04:41;;;;;;;32.92;17.52;;;;;;;14.62;50.30;100693.00;5015440;27;96563;-80
2021/11/21 02:07:08;;;;;;;29.10;17.67;;;;;;;14.48;51.66;100682.22;5003055;28;97066;-82
2021/11/21 02:09:36;;;;;;;28.70;16.50;;;;;;;14.67;51.21;100677.66;5011332;28;99064;-83
2021/11/21 02:12:03;;;;;;;27.88;17.05;;;;;;;14.77;50.51;100670.03;5011375;28;96823;-81
2021/11/21 02:14:31;;;;;;;28.23;17.23;;;;;;;14.94;49.96;100666.47;5012212;28;96671;-83
2021/11/21 02:16:58;;;;;;;28.08;17.40;;;;;;;14.82;49.88;100661.81;5010149;28;97179;-82
2021/11/21 02:19:25;;;;;;;29.27;17.73;;;;;;;14.69;50.35;100649.19;4998822;28;96869;-82
2021/11/21 02:21:53;;;;;;;27.85;17.70;;;;;;;14.69;50.70;100654.50;5011426;28;96648;-82
2021/11/21 02:24:19;;;;;;;27.75;17.05;;;;;;;14.89;50.12;100650.75;4999636;28;96814;-82
2021/11/21 02:26:46;;;;;;;30.92;18.50;;;;;;;14.46;51.10;100644.22;4997788;28;99045;-83
2021/11/21 02:29:13;;;;;;;28.58;17.80;;;;;;;14.66;50.68;100633.38;4995798;28;99897;-83
2021/11/21 02:31:40;;;;;;;30.85;18.52;;;;;;;14.77;50.11;100632.78;4996604;28;96682;-82
2021/11/21 02:34:07;;;;;;;28.20;17.95;;;;;;;14.66;50.25;100630.72;4997110;28;97005;-83
2021/11/21 02:36:34;;;;;;;28.58;18.23;;;;;;;14.79;49.88;100632.72;4995100;28;101612;-82
2021/11/21 02:39:02;;;;;;;29.30;17.80;;;;;;;14.55;50.40;100632.25;5003208;28;100754;-81
2021/11/21 02:41:29;;;;;;;30.65;18.05;;;;;;;14.78;50.35;100631.84;4996546;28;99013;-82
2021/11/21 02:43:57;;;;;;;28.92;17.23;;;;;;;14.99;49.62;100619.19;4995368;28;97096;-81
2021/11/21 02:46:23;;;;;;;30.98;18.90;;;;;;;14.90;49.40;100625.03;4996631;28;101508;-81
2021/11/21 02:48:50;;;;;;;28.92;18.17;;;;;;;15.02;49.62;100619.03;5002161;28;98930;-81
2021/11/21 02:51:17;;;;;;;30.52;19.08;;;;;;;15.04;48.97;100623.28;5003655;28;96624;-82
2021/11/21 02:53:46;;;;;;;32.53;19.17;;;;;;;14.89;49.37;100618.84;5009423;28;96900;-81
2021/11/21 02:56:16;;;;;;;31.90;19.13;;;;;;;15.02;49.17;100614.56;5005542;28;101665;-81
2021/11/21 02:58:43;;;;;;;29.25;18.65;;;;;;;14.78;49.94;100621.22;4996991;28;100081;-81
2021/11/21 03:01:12;;;;;;;34.67;20.35;;;;;;;15.05;49.02;100618.81;4997025;28;99024;-81
2021/11/21 03:03:39;;;;;;;32.00;19.42;;;;;;;15.03;49.10;100610.09;4994556;28;96883;-81
2021/11/21 03:06:06;;;;;;;29.25;18.50;;;;;;;15.07;48.97;100616.94;4994529;28;102140;-81
2021/11/21 03:08:33;;;;;;;35.60;19.73;;;;;;;14.99;48.73;100611.19;4977139;28;99184;-81
2021/11/21 03:11:11;;;;;;;30.25;18.65;;;;;;;15.01;48.92;100604.84;4986666;28;97172;-82
2021/11/21 03:13:39;;;;;;;33.85;19.13;;;;;;;14.95;48.44;100612.31;4989743;28;96851;-81
2021/11/21 03:16:06;;;;;;;33.85;20.58;;;;;;;14.29;50.55;100612.34;4991420;28;100272;-82
2021/11/21 03:18:32;;;;;;;34.08;21.02;;;;;;;14.75;49.78;100603.63;4995366;28;97599;-82
2021/11/21 03:20:59;;;;;;;33.63;20.17;;;;;;;14.90;48.87;100603.75;4991253;28;96814;-82
2021/11/21 03:23:25;;;;;;;35.78;20.88;;;;;;;14.98;48.61;100601.50;4988840;28;96987;-82
2021/11/21 03:25:52;;;;;;;35.60;21.40;;;;;;;14.99;48.79;100595.22;4981622;28;97479;-82
2021/11/21 03:28:18;;;;;;;37.05;21.38;;;;;;;14.99;49.00;100593.44;4995392;28;98093;-83
2021/11/21 03:30:47;;;;;;;37.63;21.00;;;;;;;14.77;48.79;100599.06;4985774;28;96850;-82
2021/11/21 03:33:13;;;;;;;37.75;22.30;;;;;;;14.85;48.74;100595.13;4993702;28;97287;-82
2021/11/21 03:35:40;;;;;;;38.00;21.30;;;;;;;14.70;48.88;100599.53;5000898;28;99381;-82
2021/11/21 03:38:06;;;;;;;38.38;21.48;;;;;;;14.49;49.75;100606.84;4997744;28;100079;-81
2021/11/21 03:40:33;;;;;;;33.17;20.60;;;;;;;14.65;49.55;100601.53;4986664;28;96814;-82
2021/11/21 03:43:00;;;;;;;36.83;21.17;;;;;;;14.73;49.32;100588.69;4995062;28;97317;-81
2021/11/21 03:45:27;;;;;;;39.65;22.85;;;;;;;14.59;49.71;100580.59;4992089;28;99481;-82
2021/11/21 03:47:56;;;;;;;39.60;22.75;;;;;;;14.48;49.21;100589.19;4996670;28;98415;-83
2021/11/21 03:50:23;;;;;;;40.42;21.95;;;;;;;14.36;49.84;100588.00;4984284;28;96823;-82
2021/11/21 03:52:50;;;;;;;39.13;22.75;;;;;;;14.09;50.56;100594.78;4998468;28;96617;-82
2021/11/21 03:55:18;;;;;;;45.00;23.40;;;;;;;14.45;50.23;100585.81;5004619;28;97508;-82
2021/11/21 03:57:46;;;;;;;37.75;21.92;;;;;;;14.50;49.70;100578.47;5005056;28;100951;-83
2021/11/21 04:00:16;;;;;;;37.78;22.23;;;;;;;14.56;49.75;100584.31;5002042;28;96678;-83
2021/11/21 04:02:43;;;;;;;37.28;21.85;;;;;;;14.30;50.40;100587.47;4997159;28;96737;-83
2021/11/21 04:05:12;;;;;;;37.55;21.90;;;;;;;14.51;49.69;100581.03;4985545;28;99445;-84
2021/11/21 04:07:40;;;;;;;41.33;23.45;;;;;;;14.36;49.47;100585.34;4993347;28;98300;-84
2021/11/21 04:10:17;;;;;;;38.65;22.65;;;;;;;14.13;50.70;100576.88;4992824;28;97150;-84
2021/11/21 04:12:44;;;;;;;37.33;22.13;;;;;;;14.21;50.68;100577.31;4994350;28;97261;-83
2021/11/21 04:15:12;;;;;;;38.35;21.85;;;;;;;14.12;50.61;100577.81;4996483;28;97105;-83
2021/11/21 04:17:39;;;;;;;43.00;22.48;;;;;;;14.27;50.12;100571.69;4996385;28;99834;-83
2021/11/21 04:20:09;;;;;;;42.13;23.52;;;;;;;14.49;49.93;100582.94;4993942;28;96884;-83
2021/11/21 04:22:37;;;;;;;37.38;21.48;;;;;;;14.55;49.43;100568.44;4991182;28;98482;-82
2021/11/21 04:25:05;;;;;;;38.90;21.40;;;;;;;14.36;50.34;100556.13;4991371;28;99766;-83
2021/11/21 04:27:33;;;;;;;39.30;22.75;;;;;;;14.64;49.48;100555.47;4985235;28;100452;-82
2021/11/21 04:29:59;;;;;;;38.42;22.38;;;;;;;14.64;49.32;100554.63;4990818;28;96749;-83
2021/11/21 04:32:26;;;;;;;40.65;22.27;;;;;;;14.80;48.91;100551.97;4997957;28;98335;-83
2021/11/21 04:34:52;;;;;;;39.58;22.38;;;;;;;14.51;48.94;100549.13;5003770;28;99353;-83
2021/11/21 04:37:19;;;;;;;37.70;22.13;;;;;;;14.29;49.63;100551.22;4996521;28;96824;-83
2021/11/21 04:39:48;;;;;;;38.95;21.30;;;;;;;14.46;49.65;100545.84;4996748;28;96719;-83
2021/11/21 04:42:14;;;;;;;41.35;22.30;;;;;;;14.42;49.58;100549.63;4994349;28;97043;-82
2021/11/21 04:44:43;;;;;;;39.38;21.85;;;;;;;14.23;50.24;100541.78;4993271;28;98551;-82
2021/11/21 04:47:09;;;;;;;41.08;23.65;;;;;;;14.41;50.01;100547.06;4998068;28;98862;-82
2021/11/21 04:49:36;;;;;;;39.83;22.33;;;;;;;14.45;49.98;100546.78;4996976;28;96769;-83
2021/11/21 04:52:03;;;;;;;39.83;22.17;;;;;;;13.77;51.29;100538.03;5001086;28;96954;-83
2021/11/21 04:54:30;;;;;;;38.20;22.10;;;;;;;13.60;51.79;100543.31;4994831;28;101418;-83
2021/11/21 04:56:58;;;;;;;39.80;22.70;;;;;;;14.24;50.89;100530.16;4998355;28;98122;-82
2021/11/21 04:59:25;;;;;;;43.55;24.25;;;;;;;14.52;49.81;100534.88;4999700;28;96915;-82
2021/11/21 05:01:51;;;;;;;41.45;21.88;;;;;;;14.42;50.29;100538.13;4980957;28;96717;-82
2021/11/21 05:04:18;;;;;;;41.33;22.75;;;;;;;14.41;50.33;100539.94;4988130;28;98407;-82
2021/11/21 05:06:44;;;;;;;38.50;21.63;;;;;;;14.57;49.56;100529.34;4988316;28;99487;-82
2021/11/21 05:09:11;;;;;;;40.63;22.13;;;;;;;14.28;50.34;100522.91;5002333;28;96738;-82
2021/11/21 05:11:46;;;;;;;37.92;21.00;;;;;;;14.54;49.73;100530.34;5000234;28;97234;-82
2021/11/21 05:17:12;;;;;;;37.42;20.75;;;;;;;14.19;50.54;100516.28;5011452;28;96815;-83
2021/11/21 05:19:39;;;;;;;40.10;22.63;;;;;;;14.40;50.22;100508.97;4990546;28;96796;-83
2021/11/21 05:22:05;;;;;;;39.92;21.08;;;;;;;14.23;50.47;100517.84;5000365;28;96939;-83
2021/11/21 05:24:47;;;;;;;38.10;22.15;;;;;;;14.12;50.85;100514.03;4994765;28;98800;-83
2021/11/21 05:27:18;;;;;;;39.78;21.95;;;;;;;14.18;50.63;100503.94;4990779;28;99153;-83
2021/11/21 05:29:46;;;;;;;40.88;21.58;;;;;;;14.06;50.97;100511.72;5010270;28;96896;-80
2021/11/21 05:32:13;;;;;;;37.88;21.63;;;;;;;14.14;50.57;100505.06;5010380;28;96866;-81
2021/11/21 05:34:40;;;;;;;40.78;21.58;;;;;;;14.03;51.07;100511.88;5016609;28;99254;-82
2021/11/21 05:37:07;;;;;;;37.63;20.10;;;;;;;14.00;51.17;100502.28;5001136;28;97862;-82
2021/11/21 05:39:33;;;;;;;38.50;21.15;;;;;;;14.36;50.51;100510.94;4998455;28;96855;-82
2021/11/21 05:42:00;;;;;;;39.20;22.27;;;;;;;14.47;49.79;100518.34;4989539;28;98580;-82
2021/11/21 05:44:30;;;;;;;41.80;21.52;;;;;;;14.23;50.48;100507.22;4994287;28;100024;-82
2021/11/21 05:46:58;;;;;;;39.45;21.38;;;;;;;14.47;50.03;100509.50;4990362;28;96878;-82
2021/11/21 05:49:24;;;;;;;39.42;19.55;;;;;;;14.05;50.47;100504.66;4993962;28;96896;-82
2021/11/21 05:51:51;;;;;;;37.72;20.17;;;;;;;13.80;51.48;100505.97;4993569;28;97105;-83
2021/11/21 05:54:17;;;;;;;38.55;19.92;;;;;;;13.54;52.71;100511.78;4987981;28;100395;-83
2021/11/21 05:56:44;;;;;;;34.60;19.20;;;;;;;13.68;52.30;100517.25;4988960;28;99240;-82
2021/11/21 05:59:10;;;;;;;38.00;19.60;;;;;;;13.75;52.10;100510.69;4998407;28;96863;-82
2021/11/21 06:01:37;;;;;;;37.15;20.15;;;;;;;13.88;51.60;100500.28;5000390;28;96791;-81
2021/11/21 06:04:06;;;;;;;36.45;20.17;;;;;;;14.17;51.05;100507.56;4991180;28;99371;-82
2021/11/21 06:06:32;;;;;;;35.20;19.15;;;;;;;14.41;50.09;100496.53;5013789;28;99660;-83
2021/11/21 06:09:00;;;;;;;33.83;18.10;;;;;;;14.22;50.72;100507.28;5005802;28;97768;-82
2021/11/21 06:11:26;;;;;;;37.60;19.02;;;;;;;14.19;50.75;100494.16;5005169;28;96035;-82
2021/11/21 06:13:53;;;;;;;36.15;18.75;;;;;;;14.01;51.44;100496.03;5009886;28;97805;-82
2021/11/21 06:16:19;;;;;;;38.58;19.90;;;;;;;13.89;51.85;100486.06;5011990;27;99496;-83
2021/11/21 06:18:47;;;;;;;35.35;19.23;;;;;;;13.95;51.61;100485.72;5020406;27;96587;-83
2021/11/21 06:21:15;;;;;;;36.70;20.13;;;;;;;14.31;50.73;100482.84;5017798;28;96730;-82
2021/11/21 06:23:41;;;;;;;35.20;18.92;;;;;;;14.25;50.80;100491.16;5013330;28;100174;-82
2021/11/21 06:26:08;;;;;;;35.42;19.35;;;;;;;14.21;50.64;100479.00;5008075;28;102194;-82
2021/11/21 06:28:35;;;;;;;36.42;18.92;;;;;;;14.34;50.06;100477.38;5002858;28;96751;-82
2021/11/21 06:31:02;;;;;;;37.33;19.15;;;;;;;14.32;50.44;100477.47;4997705;28;97149;-81
2021/11/21 06:33:29;;;;;;;32.45;17.90;;;;;;;14.03;50.91;100474.69;4993662;28;98208;-82
2021/11/21 06:35:56;;;;;;;34.40;17.92;;;;;;;14.00;51.35;100472.19;4989763;28;99155;-82
2021/11/21 06:38:24;;;;;;;35.03;18.13;;;;;;;14.13;50.81;100473.25;4988063;28;97877;-82
2021/11/21 06:40:50;;;;;;;33.58;18.08;;;;;;;14.16;50.76;100468.63;4997258;28;97051;-82
2021/11/21 06:43:17;;;;;;;31.90;18.17;;;;;;;14.20;50.69;100472.81;4996897;28;98178;-82
2021/11/21 06:45:44;;;;;;;31.42;17.25;;;;;;;14.33;50.49;100471.22;4994290;28;98049;-82
2021/11/21 06:48:12;;;;;;;30.58;17.15;;;;;;;14.27;50.64;100476.88;5000194;28;97090;-82
2021/11/21 06:50:39;;;;;;;35.88;18.48;;;;;;;14.44;50.00;100478.63;5000306;28;96987;-83
2021/11/21 06:53:06;;;;;;;29.48;16.85;;;;;;;14.17;50.73;100465.03;4989928;28;100761;-82
2021/11/21 06:55:34;;;;;;;28.75;16.80;;;;;;;14.22;50.51;100475.41;4998553;28;100037;-81
2021/11/21 06:58:01;;;;;;;29.33;16.83;;;;;;;14.32;50.50;100473.94;4996973;28;96768;-81
2021/11/21 07:00:28;;;;;;;31.77;17.08;;;;;;;14.49;49.99;100481.03;4992493;28;98448;-81
2021/11/21 07:02:55;;;;;;;32.13;17.45;;;;;;;14.26;50.76;100480.47;4996483;28;97976;-82
2021/11/21 07:05:21;;;;;;;29.20;17.23;;;;;;;14.27;50.72;100483.97;4994904;28;98662;-82
2021/11/21 07:07:49;;;;;;;30.10;16.60;;;;;;;14.42;50.28;100482.31;4989895;28;96874;-82
2021/11/21 07:10:16;;;;;;;30.42;16.52;;;;;;;14.48;50.01;100488.16;4995660;28;97355;-81
2021/11/21 07:12:44;;;;;;;32.47;16.75;;;;;;;14.20;50.70;100483.47;4986483;28;99552;-81
2021/11/21 07:15:13;;;;;;;36.95;17.23;;;;;;;14.19;50.92;100484.41;4991047;28;96664;-82
2021/11/21 07:17:39;;;;;;;28.70;16.55;;;;;;;14.13;51.68;100489.19;4985926;28;98985;-82
2021/11/21 07:20:11;;;;;;;32.42;17.80;;;;;;;14.25;51.49;100492.03;4987020;28;96898;-81
2021/11/21 07:22:42;;;;;;;30.80;17.45;;;;;;;14.24;50.98;100487.66;4998172;28;98874;-81
2021/11/21 07:25:09;;;;;;;28.48;15.65;;;;;;;14.13;51.51;100476.75;5007951;28;98809;-81
2021/11/21 07:27:36;;;;;;;30.60;16.05;;;;;;;14.26;51.56;100484.91;4991216;28;96664;-81
2021/11/21 07:30:04;;;;;;;29.10;16.58;;;;;;;13.79;51.75;100474.19;5000721;28;96842;-81
2021/11/21 07:32:31;;;;;;;30.65;16.70;;;;;;;14.15;52.24;100471.38;4996332;28;100705;-82
2021/11/21 07:34:57;;;;;;;28.55;15.57;;;;;;;14.44;51.15;100486.59;4993219;28;99138;-83
2021/11/21 07:37:24;;;;;;;27.42;15.48;;;;;;;14.23;52.06;100482.44;4984520;28;97154;-81
2021/11/21 07:39:50;;;;;;;31.00;15.73;;;;;;;14.47;51.50;100491.75;4998485;28;96786;-81
2021/11/21 07:42:18;;;;;;;35.47;18.73;;;;;;;14.61;51.23;100497.16;4997285;28;100416;-83
2021/11/21 07:44:44;;;;;;;33.92;15.43;;;;;;;14.31;51.87;100491.69;5005133;28;98775;-83
2021/11/21 07:47:13;;;;;;;29.27;15.60;;;;;;;14.54;51.73;100489.59;4984433;28;96874;-81
2021/11/21 07:49:39;;;;;;;26.13;13.82;;;;;;;14.69;51.33;100502.06;4998113;28;97030;-82
2021/11/21 07:52:06;;;;;;;29.38;15.85;;;;;;;14.53;51.59;100490.53;4996116;28;101222;-82
2021/11/21 07:54:33;;;;;;;31.05;15.57;;;;;;;14.65;51.91;100498.69;5001730;28;97747;-83
2021/11/21 07:57:00;;;;;;;28.10;15.60;;;;;;;14.26;53.27;100496.41;4998740;28;96810;-82
2021/11/21 07:59:27;;;;;;;27.25;14.85;;;;;;;13.90;53.19;100496.59;4991461;28;97094;-83
2021/11/21 08:01:56;;;;;;;29.15;15.98;;;;;;;13.98;54.55;100502.34;5003786;28;101936;-83
2021/11/21 08:04:24;;;;;;;28.13;15.45;;;;;;;14.13;54.50;100502.47;5000416;28;99345;-82
2021/11/21 08:06:50;;;;;;;27.48;15.18;;;;;;;14.31;54.48;100502.31;5006204;28;97049;-81
2021/11/21 08:09:25;;;;;;;27.63;14.60;;;;;;;14.29;54.69;100511.34;5011968;28;96658;-82
2021/11/21 08:11:52;;;;;;;28.17;15.63;;;;;;;14.37;54.93;100514.44;5013518;28;100686;-82
2021/11/21 08:14:28;;;;;;;28.45;15.20;;;;;;;14.35;55.05;100513.66;4998155;28;96814;-82
2021/11/21 08:16:55;;;;;;;;;;;;;;;14.33;54.91;100512.88;4993587;28;96936;-81
2021/11/21 08:19:21;;;;;;;27.17;15.50;;;;;;;13.99;56.20;100511.19;5000455;28;96925;-81
2021/11/21 08:21:49;;;;;;;29.50;15.63;;;;;;;14.29;55.45;100520.19;4997651;28;101045;-81
2021/11/21 08:24:18;;;;;;;28.35;14.52;;;;;;;14.12;55.88;100517.56;4998398;28;98603;-81
2021/11/21 08:26:46;;;;;;;27.55;15.30;;;;;;;14.31;55.10;100520.06;4986155;28;97185;-81
2021/11/21 08:29:12;;;;;;;27.98;15.32;;;;;;;14.22;55.37;100525.91;5002242;28;96904;-81
2021/11/21 08:31:41;;;;;;;27.75;14.88;;;;;;;14.29;55.33;100521.97;5006342;28;96796;-82
2021/11/21 08:34:08;;;;;;;27.38;15.27;;;;;;;14.17;55.59;100526.16;4997095;28;99868;-82
2021/11/21 08:36:35;;;;;;;29.23;15.40;;;;;;;14.17;55.45;100519.97;5009219;28;97273;-81
2021/11/21 08:39:04;;;;;;;28.65;16.10;;;;;;;13.80;56.88;100529.88;5007124;28;96949;-82
2021/11/21 08:41:31;;;;;;;28.75;15.43;;;;;;;14.12;56.31;100516.69;5007564;28;98273;-81
2021/11/21 08:43:58;;;;;;;30.08;15.43;;;;;;;14.23;56.40;100519.66;5006513;28;99533;-81
2021/11/21 08:46:26;;;;;;;30.05;15.13;;;;;;;14.22;56.38;100523.25;4999258;28;96797;-81
2021/11/21 08:48:53;;;;;;;27.83;15.15;;;;;;;14.17;56.78;100517.31;4998069;28;97123;-82
2021/11/21 08:51:20;;;;;;;28.05;14.57;;;;;;;13.99;57.29;100519.16;4993154;28;99178;-82
2021/11/21 08:53:48;;;;;;;26.95;14.73;;;;;;;14.27;56.71;100511.41;5011646;28;98847;-82
2021/11/21 08:56:17;;;;;;;27.50;14.95;;;;;;;14.34;56.57;100518.13;5004235;28;96839;-81
2021/11/21 08:58:44;;;;;;;29.63;14.68;;;;;;;14.38;56.31;100517.97;5003055;28;96882;-80
2021/11/21 09:01:28;;;;;;;27.77;13.60;;;;;;;14.56;55.76;100516.97;5005453;28;99047;-82
2021/11/21 09:03:56;;;;;;;25.50;14.30;;;;;;;14.58;55.31;100521.25;4999089;28;100941;-82
2021/11/21 09:06:24;;;;;;;27.85;14.52;;;;;;;14.60;55.50;100519.38;5001332;28;96818;-81
2021/11/21 09:08:53;;;;;;;25.60;13.68;;;;;;;14.07;57.38;100516.94;5000675;28;97080;-81
2021/11/21 09:11:21;;;;;;;26.88;14.68;;;;;;;14.19;56.06;100528.72;5006237;28;98018;-82
2021/11/21 09:13:48;;;;;;;29.33;15.48;;;;;;;14.22;56.34;100521.44;5004139;28;101745;-83
2021/11/21 09:16:14;;;;;;;24.42;13.68;;;;;;;14.02;56.48;100512.81;5007876;28;97661;-82
2021/11/21 09:18:41;;;;;;;25.92;14.15;;;;;;;14.22;56.25;100526.75;5002011;28;96753;-82
2021/11/21 09:21:07;;;;;;;27.55;13.98;;;;;;;14.14;56.78;100531.63;5005632;28;100932;-82
2021/11/21 09:23:34;;;;;;;27.73;14.55;;;;;;;14.14;56.66;100525.44;5000154;28;97745;-81
2021/11/21 09:26:02;;;;;;;26.33;13.35;;;;;;;14.44;56.25;100523.81;5007267;28;96649;-82
2021/11/21 09:28:30;;;;;;;26.95;13.65;;;;;;;14.60;55.36;100522.03;5004447;28;96930;-81
2021/11/21 09:30:57;;;;;;;27.60;13.85;;;;;;;14.70;55.06;100528.53;5003215;28;101746;-82
2021/11/21 09:33:25;;;;;;;27.42;14.98;;;;;;;14.49;55.67;100527.09;4992656;28;99239;-83
2021/11/21 09:35:52;;;;;;;22.45;13.02;;;;;;;14.39;55.86;100522.34;5001537;28;96682;-83
2021/11/21 09:38:20;;;;;;;24.60;13.55;;;;;;;14.45;56.11;100522.00;5006195;28;96859;-83
2021/11/21 09:40:48;;;;;;;24.50;13.85;;;;;;;14.42;55.88;100525.72;5006488;28;99235;-81
2021/11/21 09:43:14;;;;;;;25.30;14.02;;;;;;;14.21;57.31;100518.88;5007089;28;98148;-82
2021/11/21 09:45:47;;;;;;;24.85;13.80;;;;;;;13.95;58.05;100517.59;5002593;28;96785;-82
2021/11/21 09:48:15;;;;;;;25.17;13.88;;;;;;;14.29;57.28;100517.50;4996042;28;96969;-83
2021/11/21 09:50:43;;;;;;;24.63;13.57;;;;;;;14.32;56.19;100509.34;4997431;28;102208;-82
2021/11/21 09:53:11;;;;;;;27.80;14.23;;;;;;;14.33;56.67;100504.91;5002455;28;97867;-82
2021/11/21 09:55:39;;;;;;;29.45;14.55;;;;;;;14.24;56.88;100508.09;5004896;28;96871;-82
2021/11/21 09:58:06;;;;;;;26.05;14.02;;;;;;;14.24;56.05;100502.78;5000330;28;97401;-82
2021/11/21 10:00:35;;;;;;;31.15;15.18;;;;;;;14.23;56.66;100498.38;4997101;28;99191;-82
2021/11/21 10:03:05;;;;;;;24.25;13.18;;;;;;;14.07;56.56;100497.50;4994203;28;97764;-81
2021/11/21 10:05:35;;;;;;;24.10;13.73;;;;;;;14.52;56.31;100497.66;4993268;28;97451;-82
2021/11/21 10:08:04;;;;;;;27.30;14.45;;;;;;;14.51;55.91;100495.94;4990155;28;96712;-81
2021/11/21 10:10:37;;;;;;;26.50;14.57;;;;;;;14.50;55.56;100498.72;4992907;28;97766;-81
2021/11/21 10:13:04;;;;;;;26.42;14.43;;;;;;;14.58;55.49;100499.97;4993699;28;101158;-82
2021/11/21 10:15:55;;;;;;;26.85;14.32;;;;;;;14.25;56.67;100494.69;5002224;28;96828;-81
2021/11/21 10:18:29;;;;;;;24.20;13.48;;;;;;;14.49;56.02;100487.22;4987238;28;96961;-82
2021/11/21 10:20:56;;;;;;;27.50;14.45;;;;;;;14.22;57.00;100491.34;4992711;28;97599;-82
2021/11/21 10:23:23;;;;;;;22.52;13.82;;;;;;;14.40;56.22;100494.81;4998823;28;99108;-80
2021/11/21 10:26:01;;;;;;;25.08;14.18;;;;;;;14.58;55.59;100492.00;4999354;28;96882;-81
2021/11/21 10:28:31;;;;;;;27.45;15.15;;;;;;;14.64;55.12;100494.31;5000469;28;98485;-80
2021/11/21 10:31:02;;;;;;;27.83;14.60;;;;;;;14.22;56.23;100489.56;5006427;28;101136;-82
2021/11/21 10:33:33;;;;;;;24.58;13.77;;;;;;;14.31;56.26;100498.81;5009305;28;97533;-80
2021/11/21 10:36:01;;;;;;;26.73;14.90;;;;;;;14.08;56.13;100493.91;5021812;28;96813;-81
2021/11/21 10:38:34;;;;;;;26.45;14.60;;;;;;;14.25;55.72;100489.38;5006027;28;96818;-81
2021/11/21 10:41:05;;;;;;;25.38;13.98;;;;;;;14.24;56.84;100492.13;5004491;28;98825;-81
2021/11/21 10:44:00;;;;;;;24.83;14.27;;;;;;;14.02;56.65;100494.22;5002565;28;96900;-82
2021/11/21 10:46:43;;;;;;;27.92;14.05;;;;;;;14.15;56.88;100498.81;5002966;28;96534;-81
2021/11/21 10:49:17;;;;;;;23.50;14.45;;;;;;;14.49;56.01;100503.16;5001274;28;96748;-80
2021/11/21 10:51:45;;;;;;;25.00;14.13;;;;;;;14.64;55.77;100499.63;5010346;28;96797;-80
2021/11/21 10:54:21;;;;;;;23.45;13.88;;;;;;;14.60;55.45;100500.75;5003785;28;98888;-80
2021/11/21 10:56:51;;;;;;;24.25;14.20;;;;;;;14.66;55.32;100504.88;4989961;28;96949;-80
2021/11/21 10:59:33;;;;;;;27.67;15.82;;;;;;;14.67;55.51;100501.28;5001007;28;96991;-80
2021/11/21 11:02:22;;;;;;;21.95;14.02;;;;;;;14.78;55.19;100506.84;4996541;28;98906;-82
2021/11/21 11:05:15;;;;;;;28.00;14.75;;;;;;;14.34;55.27;100501.31;4992029;28;100076;-80
2021/11/21 11:07:51;;;;;;;23.50;14.05;;;;;;;14.33;56.24;100499.59;4980140;28;97100;-80
2021/11/21 11:10:22;;;;;;;23.33;14.32;;;;;;;14.47;56.07;100502.38;4997112;28;96861;-81
2021/11/21 11:12:51;;;;;;;24.50;13.65;;;;;;;14.66;55.35;100502.22;4989170;28;101881;-81
2021/11/21 11:15:19;;;;;;;22.50;13.85;;;;;;;14.73;55.12;100506.25;5000256;28;99500;-81
2021/11/21 11:17:49;;;;;;;21.98;13.00;;;;;;;14.88;54.78;100504.53;5014907;28;96697;-81